sensor_id;sensor_type;location;lat;lon;timestamp;P1;durP1;ratioP1;P2;durP2;ratioP2
51724;SDS011;37801;53.224;6.552;2023-04-24T00:02:15;7.93;;;5.20;;
51724;SDS011;37801;53.224;6.552;2023-04-24T00:04:41;6.88;;;5.00;;
51724;SDS011;37801;53.224;6.552;2023-04-24T00:07:10;6.43;;;5.30;;
51724;SDS011;37801;53.224;6.552;2023-04-24T00:09:36;5.57;;;4.80;;
51724;SDS011;37801;53.224;6.552;2023-04-24T00:12:02;6.40;;;5.40;;
51724;SDS011;37801;53.224;6.552;2023-04-24T00:14:31;7.75;;;5.50;;
51724;SDS011;37801;53.224;6.552;2023-04-24T00:16:57;7.68;;;5.88;;
51724;SDS011;37801;53.224;6.552;2023-04-24T00:19:22;8.27;;;6.07;;
51724;SDS011;37801;53.224;6.552;2023-04-24T00:21:48;8.00;;;7.00;;
51724;SDS011;37801;53.224;6.552;2023-04-24T00:24:17;7.82;;;6.82;;
51724;SDS011;37801;53.224;6.552;2023-04-24T00:26:43;8.30;;;6.78;;
51724;SDS011;37801;53.224;6.552;2023-04-24T00:29:09;10.27;;;8.15;;
51724;SDS011;37801;53.224;6.552;2023-04-24T00:31:34;9.65;;;8.02;;
51724;SDS011;37801;53.224;6.552;2023-04-24T00:34:00;10.27;;;8.15;;
51724;SDS011;37801;53.224;6.552;2023-04-24T00:36:27;9.15;;;7.53;;
51724;SDS011;37801;53.224;6.552;2023-04-24T00:38:54;10.55;;;7.90;;
51724;SDS011;37801;53.224;6.552;2023-04-24T00:41:20;9.88;;;7.30;;
51724;SDS011;37801;53.224;6.552;2023-04-24T00:43:47;5.93;;;5.32;;
51724;SDS011;37801;53.224;6.552;2023-04-24T00:46:13;7.45;;;5.40;;
51724;SDS011;37801;53.224;6.552;2023-04-24T00:48:39;5.75;;;4.75;;
51724;SDS011;37801;53.224;6.552;2023-04-24T00:51:05;5.78;;;4.38;;
51724;SDS011;37801;53.224;6.552;2023-04-24T00:53:31;4.82;;;3.72;;
51724;SDS011;37801;53.224;6.552;2023-04-24T00:55:58;3.90;;;3.20;;
51724;SDS011;37801;53.224;6.552;2023-04-24T00:58:24;3.92;;;2.75;;
51724;SDS011;37801;53.224;6.552;2023-04-24T01:00:51;4.10;;;2.70;;
51724;SDS011;37801;53.224;6.552;2023-04-24T01:03:22;3.90;;;2.15;;
51724;SDS011;37801;53.224;6.552;2023-04-24T01:05:51;2.15;;;1.63;;
51724;SDS011;37801;53.224;6.552;2023-04-24T01:08:19;2.83;;;2.00;;
51724;SDS011;37801;53.224;6.552;2023-04-24T01:10:48;2.13;;;1.80;;
51724;SDS011;37801;53.224;6.552;2023-04-24T01:13:21;2.30;;;1.70;;
51724;SDS011;37801;53.224;6.552;2023-04-24T01:15:47;2.53;;;1.90;;
51724;SDS011;37801;53.224;6.552;2023-04-24T01:18:13;2.65;;;1.70;;
51724;SDS011;37801;53.224;6.552;2023-04-24T01:20:40;2.17;;;1.65;;
51724;SDS011;37801;53.224;6.552;2023-04-24T01:23:07;2.88;;;1.50;;
51724;SDS011;37801;53.224;6.552;2023-04-24T01:25:33;2.42;;;1.70;;
51724;SDS011;37801;53.224;6.552;2023-04-24T01:28:00;2.17;;;1.75;;
51724;SDS011;37801;53.224;6.552;2023-04-24T01:30:26;2.00;;;1.63;;
51724;SDS011;37801;53.224;6.552;2023-04-24T01:32:52;2.33;;;1.77;;
51724;SDS011;37801;53.224;6.552;2023-04-24T01:35:18;2.33;;;1.60;;
51724;SDS011;37801;53.224;6.552;2023-04-24T01:37:45;2.85;;;1.80;;
51724;SDS011;37801;53.224;6.552;2023-04-24T01:40:11;2.20;;;1.80;;
51724;SDS011;37801;53.224;6.552;2023-04-24T01:42:36;2.40;;;1.95;;
51724;SDS011;37801;53.224;6.552;2023-04-24T01:45:03;2.45;;;2.10;;
51724;SDS011;37801;53.224;6.552;2023-04-24T01:47:30;2.67;;;1.98;;
51724;SDS011;37801;53.224;6.552;2023-04-24T01:49:57;3.20;;;2.30;;
51724;SDS011;37801;53.224;6.552;2023-04-24T01:52:23;2.20;;;1.90;;
51724;SDS011;37801;53.224;6.552;2023-04-24T01:54:48;2.95;;;2.25;;
51724;SDS011;37801;53.224;6.552;2023-04-24T01:57:14;2.60;;;2.40;;
51724;SDS011;37801;53.224;6.552;2023-04-24T01:59:42;2.97;;;2.15;;
51724;SDS011;37801;53.224;6.552;2023-04-24T02:02:08;3.00;;;2.60;;
51724;SDS011;37801;53.224;6.552;2023-04-24T02:04:33;3.42;;;2.60;;
51724;SDS011;37801;53.224;6.552;2023-04-24T02:06:59;2.90;;;2.60;;
51724;SDS011;37801;53.224;6.552;2023-04-24T02:09:25;3.33;;;2.78;;
51724;SDS011;37801;53.224;6.552;2023-04-24T02:11:50;3.42;;;3.13;;
51724;SDS011;37801;53.224;6.552;2023-04-24T02:14:16;3.30;;;3.00;;
51724;SDS011;37801;53.224;6.552;2023-04-24T02:16:42;3.40;;;3.10;;
51724;SDS011;37801;53.224;6.552;2023-04-24T02:19:09;4.45;;;3.40;;
51724;SDS011;37801;53.224;6.552;2023-04-24T02:21:35;4.13;;;3.72;;
51724;SDS011;37801;53.224;6.552;2023-04-24T02:24:01;4.20;;;3.80;;
51724;SDS011;37801;53.224;6.552;2023-04-24T02:26:27;4.32;;;3.92;;
51724;SDS011;37801;53.224;6.552;2023-04-24T02:28:53;6.43;;;4.57;;
51724;SDS011;37801;53.224;6.552;2023-04-24T02:31:18;4.80;;;4.30;;
51724;SDS011;37801;53.224;6.552;2023-04-24T02:33:44;5.25;;;4.75;;
51724;SDS011;37801;53.224;6.552;2023-04-24T02:36:10;5.32;;;4.82;;
51724;SDS011;37801;53.224;6.552;2023-04-24T02:38:35;5.75;;;5.15;;
51724;SDS011;37801;53.224;6.552;2023-04-24T02:41:01;6.10;;;5.50;;
51724;SDS011;37801;53.224;6.552;2023-04-24T02:43:32;5.78;;;5.18;;
51724;SDS011;37801;53.224;6.552;2023-04-24T02:45:58;5.90;;;5.22;;
51724;SDS011;37801;53.224;6.552;2023-04-24T02:48:24;6.40;;;5.80;;
51724;SDS011;37801;53.224;6.552;2023-04-24T02:50:50;6.82;;;6.15;;
51724;SDS011;37801;53.224;6.552;2023-04-24T02:53:16;8.52;;;6.53;;
51724;SDS011;37801;53.224;6.552;2023-04-24T02:55:42;7.18;;;6.47;;
51724;SDS011;37801;53.224;6.552;2023-04-24T02:58:08;7.22;;;6.53;;
51724;SDS011;37801;53.224;6.552;2023-04-24T03:00:33;7.38;;;6.65;;
51724;SDS011;37801;53.224;6.552;2023-04-24T03:02:59;8.73;;;6.68;;
51724;SDS011;37801;53.224;6.552;2023-04-24T03:05:25;6.95;;;6.25;;
51724;SDS011;37801;53.224;6.552;2023-04-24T03:07:52;7.25;;;6.55;;
51724;SDS011;37801;53.224;6.552;2023-04-24T03:10:18;7.90;;;7.10;;
51724;SDS011;37801;53.224;6.552;2023-04-24T03:12:44;8.27;;;7.38;;
51724;SDS011;37801;53.224;6.552;2023-04-24T03:15:09;10.85;;;7.35;;
51724;SDS011;37801;53.224;6.552;2023-04-24T03:17:35;8.80;;;7.90;;
51724;SDS011;37801;53.224;6.552;2023-04-24T03:20:02;9.88;;;7.72;;
51724;SDS011;37801;53.224;6.552;2023-04-24T03:22:30;8.85;;;7.95;;
51724;SDS011;37801;53.224;6.552;2023-04-24T03:24:57;9.68;;;8.52;;
51724;SDS011;37801;53.224;6.552;2023-04-24T03:27:23;9.82;;;8.57;;
51724;SDS011;37801;53.224;6.552;2023-04-24T03:29:49;9.55;;;8.55;;
51724;SDS011;37801;53.224;6.552;2023-04-24T03:32:19;9.43;;;8.50;;
51724;SDS011;37801;53.224;6.552;2023-04-24T03:34:44;10.30;;;9.20;;
51724;SDS011;37801;53.224;6.552;2023-04-24T03:37:10;10.68;;;9.23;;
51724;SDS011;37801;53.224;6.552;2023-04-24T03:39:36;10.75;;;9.65;;
51724;SDS011;37801;53.224;6.552;2023-04-24T03:42:01;10.88;;;9.45;;
51724;SDS011;37801;53.224;6.552;2023-04-24T03:44:31;11.07;;;9.82;;
51724;SDS011;37801;53.224;6.552;2023-04-24T03:46:57;12.63;;;10.70;;
51724;SDS011;37801;53.224;6.552;2023-04-24T03:49:23;13.43;;;11.93;;
51724;SDS011;37801;53.224;6.552;2023-04-24T03:51:49;12.13;;;10.90;;
51724;SDS011;37801;53.224;6.552;2023-04-24T03:54:14;15.40;;;13.60;;
51724;SDS011;37801;53.224;6.552;2023-04-24T03:56:40;14.95;;;13.43;;
51724;SDS011;37801;53.224;6.552;2023-04-24T03:59:06;15.90;;;14.25;;
51724;SDS011;37801;53.224;6.552;2023-04-24T04:01:31;18.02;;;16.20;;
51724;SDS011;37801;53.224;6.552;2023-04-24T04:03:57;17.80;;;16.00;;
51724;SDS011;37801;53.224;6.552;2023-04-24T04:06:23;18.85;;;16.95;;
51724;SDS011;37801;53.224;6.552;2023-04-24T04:08:49;18.10;;;16.17;;
51724;SDS011;37801;53.224;6.552;2023-04-24T04:11:15;17.55;;;15.70;;
51724;SDS011;37801;53.224;6.552;2023-04-24T04:13:40;17.73;;;15.93;;
51724;SDS011;37801;53.224;6.552;2023-04-24T04:16:06;18.40;;;16.42;;
51724;SDS011;37801;53.224;6.552;2023-04-24T04:18:33;19.05;;;16.98;;
51724;SDS011;37801;53.224;6.552;2023-04-24T04:20:59;17.63;;;15.82;;
51724;SDS011;37801;53.224;6.552;2023-04-24T04:23:26;17.95;;;16.05;;
51724;SDS011;37801;53.224;6.552;2023-04-24T04:25:53;17.92;;;15.98;;
51724;SDS011;37801;53.224;6.552;2023-04-24T04:28:19;16.48;;;14.68;;
51724;SDS011;37801;53.224;6.552;2023-04-24T04:30:46;17.73;;;15.82;;
51724;SDS011;37801;53.224;6.552;2023-04-24T04:33:12;16.95;;;15.25;;
51724;SDS011;37801;53.224;6.552;2023-04-24T04:35:39;16.15;;;14.45;;
51724;SDS011;37801;53.224;6.552;2023-04-24T04:38:06;15.90;;;14.30;;
51724;SDS011;37801;53.224;6.552;2023-04-24T04:40:33;15.73;;;13.88;;
51724;SDS011;37801;53.224;6.552;2023-04-24T04:42:59;14.52;;;13.05;;
51724;SDS011;37801;53.224;6.552;2023-04-24T04:45:24;15.10;;;13.50;;
51724;SDS011;37801;53.224;6.552;2023-04-24T04:47:52;13.95;;;12.55;;
51724;SDS011;37801;53.224;6.552;2023-04-24T04:50:20;14.60;;;11.98;;
51724;SDS011;37801;53.224;6.552;2023-04-24T04:52:45;13.95;;;12.55;;
51724;SDS011;37801;53.224;6.552;2023-04-24T04:55:11;12.10;;;10.88;;
51724;SDS011;37801;53.224;6.552;2023-04-24T04:57:38;12.02;;;10.80;;
51724;SDS011;37801;53.224;6.552;2023-04-24T05:00:04;12.55;;;11.25;;
51724;SDS011;37801;53.224;6.552;2023-04-24T05:02:32;11.32;;;10.23;;
51724;SDS011;37801;53.224;6.552;2023-04-24T05:04:57;7.57;;;6.57;;
51724;SDS011;37801;53.224;6.552;2023-04-24T05:07:23;6.90;;;6.15;;
51724;SDS011;37801;53.224;6.552;2023-04-24T05:09:49;7.60;;;6.45;;
51724;SDS011;37801;53.224;6.552;2023-04-24T05:12:16;7.53;;;6.05;;
51724;SDS011;37801;53.224;6.552;2023-04-24T05:14:42;7.72;;;6.20;;
51724;SDS011;37801;53.224;6.552;2023-04-24T05:17:07;7.63;;;6.15;;
51724;SDS011;37801;53.224;6.552;2023-04-24T05:19:33;8.45;;;5.80;;
51724;SDS011;37801;53.224;6.552;2023-04-24T05:22:01;6.85;;;5.38;;
51724;SDS011;37801;53.224;6.552;2023-04-24T05:24:29;8.18;;;6.00;;
51724;SDS011;37801;53.224;6.552;2023-04-24T05:26:55;9.00;;;6.60;;
51724;SDS011;37801;53.224;6.552;2023-04-24T05:29:20;7.38;;;5.82;;
51724;SDS011;37801;53.224;6.552;2023-04-24T05:31:46;7.90;;;6.43;;
51724;SDS011;37801;53.224;6.552;2023-04-24T05:34:12;8.00;;;5.82;;
51724;SDS011;37801;53.224;6.552;2023-04-24T05:36:37;7.50;;;6.47;;
51724;SDS011;37801;53.224;6.552;2023-04-24T05:39:03;7.32;;;6.28;;
51724;SDS011;37801;53.224;6.552;2023-04-24T05:41:30;6.55;;;5.20;;
51724;SDS011;37801;53.224;6.552;2023-04-24T05:43:55;6.93;;;4.93;;
51724;SDS011;37801;53.224;6.552;2023-04-24T05:46:21;9.82;;;5.13;;
51724;SDS011;37801;53.224;6.552;2023-04-24T05:48:47;6.82;;;5.35;;
51724;SDS011;37801;53.224;6.552;2023-04-24T05:51:12;6.60;;;4.75;;
51724;SDS011;37801;53.224;6.552;2023-04-24T05:53:38;6.28;;;4.65;;
51724;SDS011;37801;53.224;6.552;2023-04-24T05:56:04;6.38;;;4.65;;
51724;SDS011;37801;53.224;6.552;2023-04-24T05:58:30;6.10;;;4.65;;
51724;SDS011;37801;53.224;6.552;2023-04-24T06:00:56;6.45;;;4.75;;
51724;SDS011;37801;53.224;6.552;2023-04-24T06:03:23;5.68;;;4.45;;
51724;SDS011;37801;53.224;6.552;2023-04-24T06:05:50;5.97;;;4.63;;
51724;SDS011;37801;53.224;6.552;2023-04-24T06:08:16;7.95;;;4.47;;
51724;SDS011;37801;53.224;6.552;2023-04-24T06:10:42;8.57;;;5.13;;
51724;SDS011;37801;53.224;6.552;2023-04-24T06:13:07;7.57;;;5.03;;
51724;SDS011;37801;53.224;6.552;2023-04-24T06:15:33;7.70;;;5.05;;
51724;SDS011;37801;53.224;6.552;2023-04-24T06:17:59;7.57;;;5.05;;
51724;SDS011;37801;53.224;6.552;2023-04-24T06:20:25;7.63;;;5.30;;
51724;SDS011;37801;53.224;6.552;2023-04-24T06:22:51;7.68;;;5.07;;
51724;SDS011;37801;53.224;6.552;2023-04-24T06:25:16;8.60;;;5.97;;
51724;SDS011;37801;53.224;6.552;2023-04-24T06:27:43;9.38;;;6.85;;
51724;SDS011;37801;53.224;6.552;2023-04-24T06:30:08;8.38;;;7.00;;
51724;SDS011;37801;53.224;6.552;2023-04-24T06:32:35;11.57;;;8.63;;
51724;SDS011;37801;53.224;6.552;2023-04-24T06:35:00;16.30;;;13.07;;
51724;SDS011;37801;53.224;6.552;2023-04-24T06:37:26;18.75;;;13.98;;
51724;SDS011;37801;53.224;6.552;2023-04-24T06:39:52;35.08;;;23.60;;
51724;SDS011;37801;53.224;6.552;2023-04-24T06:42:17;31.65;;;21.63;;
51724;SDS011;37801;53.224;6.552;2023-04-24T06:44:45;17.80;;;11.52;;
51724;SDS011;37801;53.224;6.552;2023-04-24T06:47:11;12.38;;;8.60;;
51724;SDS011;37801;53.224;6.552;2023-04-24T06:49:40;12.27;;;7.95;;
51724;SDS011;37801;53.224;6.552;2023-04-24T06:52:06;9.38;;;7.10;;
51724;SDS011;37801;53.224;6.552;2023-04-24T06:54:32;10.77;;;6.38;;
51724;SDS011;37801;53.224;6.552;2023-04-24T06:56:58;8.40;;;5.30;;
51724;SDS011;37801;53.224;6.552;2023-04-24T06:59:26;10.70;;;5.25;;
51724;SDS011;37801;53.224;6.552;2023-04-24T07:01:52;7.90;;;4.45;;
51724;SDS011;37801;53.224;6.552;2023-04-24T07:04:18;6.80;;;4.18;;
51724;SDS011;37801;53.224;6.552;2023-04-24T07:06:47;7.05;;;4.60;;
51724;SDS011;37801;53.224;6.552;2023-04-24T07:09:14;7.28;;;3.70;;
51724;SDS011;37801;53.224;6.552;2023-04-24T07:11:47;4.50;;;2.90;;
51724;SDS011;37801;53.224;6.552;2023-04-24T07:14:13;7.07;;;2.63;;
51724;SDS011;37801;53.224;6.552;2023-04-24T07:16:39;4.05;;;2.65;;
51724;SDS011;37801;53.224;6.552;2023-04-24T07:19:04;3.55;;;2.50;;
51724;SDS011;37801;53.224;6.552;2023-04-24T07:21:30;4.90;;;2.47;;
51724;SDS011;37801;53.224;6.552;2023-04-24T07:23:57;6.43;;;2.58;;
51724;SDS011;37801;53.224;6.552;2023-04-24T07:26:23;5.65;;;2.80;;
51724;SDS011;37801;53.224;6.552;2023-04-24T07:28:50;5.63;;;2.45;;
51724;SDS011;37801;53.224;6.552;2023-04-24T07:31:15;8.20;;;2.80;;
51724;SDS011;37801;53.224;6.552;2023-04-24T07:33:41;8.32;;;3.70;;
51724;SDS011;37801;53.224;6.552;2023-04-24T07:36:07;5.70;;;2.97;;
51724;SDS011;37801;53.224;6.552;2023-04-24T07:38:32;7.85;;;3.60;;
51724;SDS011;37801;53.224;6.552;2023-04-24T07:40:58;7.40;;;3.78;;
51724;SDS011;37801;53.224;6.552;2023-04-24T07:43:24;7.35;;;4.10;;
51724;SDS011;37801;53.224;6.552;2023-04-24T07:45:50;7.85;;;4.00;;
51724;SDS011;37801;53.224;6.552;2023-04-24T07:48:16;6.07;;;3.63;;
51724;SDS011;37801;53.224;6.552;2023-04-24T07:50:43;7.45;;;3.30;;
51724;SDS011;37801;53.224;6.552;2023-04-24T07:53:09;8.32;;;3.83;;
51724;SDS011;37801;53.224;6.552;2023-04-24T07:55:35;9.93;;;4.43;;
51724;SDS011;37801;53.224;6.552;2023-04-24T07:58:01;7.75;;;4.47;;
51724;SDS011;37801;53.224;6.552;2023-04-24T08:00:27;8.27;;;5.53;;
51724;SDS011;37801;53.224;6.552;2023-04-24T08:02:52;13.38;;;7.13;;
51724;SDS011;37801;53.224;6.552;2023-04-24T08:05:18;14.32;;;7.85;;
51724;SDS011;37801;53.224;6.552;2023-04-24T08:07:45;11.02;;;7.47;;
51724;SDS011;37801;53.224;6.552;2023-04-24T08:10:13;15.68;;;10.25;;
51724;SDS011;37801;53.224;6.552;2023-04-24T08:12:40;20.70;;;11.00;;
51724;SDS011;37801;53.224;6.552;2023-04-24T08:15:06;20.00;;;12.10;;
51724;SDS011;37801;53.224;6.552;2023-04-24T08:17:33;21.00;;;12.65;;
51724;SDS011;37801;53.224;6.552;2023-04-24T08:20:00;26.98;;;14.90;;
51724;SDS011;37801;53.224;6.552;2023-04-24T08:22:27;26.33;;;16.42;;
51724;SDS011;37801;53.224;6.552;2023-04-24T08:24:53;29.73;;;16.48;;
51724;SDS011;37801;53.224;6.552;2023-04-24T08:27:21;23.75;;;15.95;;
51724;SDS011;37801;53.224;6.552;2023-04-24T08:29:46;30.67;;;16.67;;
51724;SDS011;37801;53.224;6.552;2023-04-24T08:32:12;30.42;;;17.58;;
51724;SDS011;37801;53.224;6.552;2023-04-24T08:34:38;27.70;;;17.80;;
51724;SDS011;37801;53.224;6.552;2023-04-24T08:37:03;29.77;;;17.67;;
51724;SDS011;37801;53.224;6.552;2023-04-24T08:39:29;26.88;;;16.95;;
51724;SDS011;37801;53.224;6.552;2023-04-24T08:41:55;26.30;;;16.90;;
51724;SDS011;37801;53.224;6.552;2023-04-24T08:44:21;27.45;;;15.65;;
51724;SDS011;37801;53.224;6.552;2023-04-24T08:46:47;26.85;;;15.07;;
51724;SDS011;37801;53.224;6.552;2023-04-24T08:49:14;24.80;;;14.93;;
51724;SDS011;37801;53.224;6.552;2023-04-24T08:51:43;28.02;;;15.23;;
51724;SDS011;37801;53.224;6.552;2023-04-24T08:54:11;26.15;;;14.75;;
51724;SDS011;37801;53.224;6.552;2023-04-24T08:56:38;19.95;;;13.32;;
51724;SDS011;37801;53.224;6.552;2023-04-24T08:59:08;23.42;;;13.25;;
51724;SDS011;37801;53.224;6.552;2023-04-24T09:01:34;18.80;;;12.75;;
51724;SDS011;37801;53.224;6.552;2023-04-24T09:04:02;21.30;;;13.02;;
51724;SDS011;37801;53.224;6.552;2023-04-24T09:06:29;21.30;;;13.55;;
51724;SDS011;37801;53.224;6.552;2023-04-24T09:08:57;20.88;;;14.45;;
51724;SDS011;37801;53.224;6.552;2023-04-24T09:11:26;27.42;;;16.17;;
51724;SDS011;37801;53.224;6.552;2023-04-24T09:13:53;27.77;;;18.77;;
51724;SDS011;37801;53.224;6.552;2023-04-24T09:16:20;27.90;;;18.45;;
51724;SDS011;37801;53.224;6.552;2023-04-24T09:18:48;30.55;;;19.55;;
51724;SDS011;37801;53.224;6.552;2023-04-24T09:21:13;28.60;;;18.92;;
51724;SDS011;37801;53.224;6.552;2023-04-24T09:23:40;26.83;;;16.45;;
51724;SDS011;37801;53.224;6.552;2023-04-24T09:26:06;26.55;;;16.05;;
51724;SDS011;37801;53.224;6.552;2023-04-24T09:28:37;22.05;;;14.38;;
51724;SDS011;37801;53.224;6.552;2023-04-24T09:31:22;18.23;;;12.77;;
51724;SDS011;37801;53.224;6.552;2023-04-24T09:36:54;18.88;;;11.55;;
51724;SDS011;37801;53.224;6.552;2023-04-24T09:39:14;19.48;;;12.10;;
51724;SDS011;37801;53.224;6.552;2023-04-24T09:44:20;18.33;;;11.10;;
51724;SDS011;37801;53.224;6.552;2023-04-24T09:49:24;18.63;;;10.85;;
51724;SDS011;37801;53.224;6.552;2023-04-24T09:54:30;18.02;;;9.80;;
51724;SDS011;37801;53.224;6.552;2023-04-24T09:56:56;21.35;;;9.82;;
51724;SDS011;37801;53.224;6.552;2023-04-24T09:59:22;19.10;;;10.05;;
51724;SDS011;37801;53.224;6.552;2023-04-24T10:01:48;19.23;;;10.60;;
51724;SDS011;37801;53.224;6.552;2023-04-24T10:04:15;15.65;;;9.95;;
51724;SDS011;37801;53.224;6.552;2023-04-24T10:06:45;16.85;;;9.50;;
51724;SDS011;37801;53.224;6.552;2023-04-24T10:09:11;16.75;;;8.23;;
51724;SDS011;37801;53.224;6.552;2023-04-24T10:11:45;18.45;;;8.52;;
51724;SDS011;37801;53.224;6.552;2023-04-24T10:14:13;13.48;;;6.82;;
51724;SDS011;37801;53.224;6.552;2023-04-24T10:16:40;13.90;;;6.88;;
51724;SDS011;37801;53.224;6.552;2023-04-24T10:19:07;12.40;;;6.70;;
51724;SDS011;37801;53.224;6.552;2023-04-24T10:21:34;15.70;;;6.85;;
51724;SDS011;37801;53.224;6.552;2023-04-24T10:24:01;10.02;;;6.38;;
51724;SDS011;37801;53.224;6.552;2023-04-24T10:26:29;13.15;;;7.18;;
51724;SDS011;37801;53.224;6.552;2023-04-24T10:28:54;9.40;;;5.78;;
51724;SDS011;37801;53.224;6.552;2023-04-24T10:31:22;10.50;;;6.43;;
51724;SDS011;37801;53.224;6.552;2023-04-24T10:33:49;12.45;;;5.72;;
51724;SDS011;37801;53.224;6.552;2023-04-24T10:36:16;12.43;;;6.03;;
51724;SDS011;37801;53.224;6.552;2023-04-24T10:38:44;13.40;;;5.25;;
51724;SDS011;37801;53.224;6.552;2023-04-24T10:41:12;10.07;;;5.43;;
51724;SDS011;37801;53.224;6.552;2023-04-24T10:43:45;12.90;;;5.65;;
51724;SDS011;37801;53.224;6.552;2023-04-24T10:46:16;13.18;;;5.72;;
51724;SDS011;37801;53.224;6.552;2023-04-24T10:48:44;16.13;;;5.68;;
51724;SDS011;37801;53.224;6.552;2023-04-24T10:51:22;10.43;;;5.88;;
51724;SDS011;37801;53.224;6.552;2023-04-24T10:53:51;11.95;;;6.00;;
51724;SDS011;37801;53.224;6.552;2023-04-24T10:56:17;14.13;;;5.90;;
51724;SDS011;37801;53.224;6.552;2023-04-24T10:58:50;9.13;;;4.80;;
51724;SDS011;37801;53.224;6.552;2023-04-24T11:01:27;11.35;;;4.43;;
51724;SDS011;37801;53.224;6.552;2023-04-24T11:03:58;13.23;;;4.60;;
51724;SDS011;37801;53.224;6.552;2023-04-24T11:06:30;11.48;;;5.10;;
51724;SDS011;37801;53.224;6.552;2023-04-24T11:09:04;11.07;;;4.10;;
51724;SDS011;37801;53.224;6.552;2023-04-24T11:11:35;13.38;;;4.20;;
51724;SDS011;37801;53.224;6.552;2023-04-24T11:14:08;9.07;;;3.58;;
51724;SDS011;37801;53.224;6.552;2023-04-24T11:16:35;12.52;;;3.47;;
51724;SDS011;37801;53.224;6.552;2023-04-24T11:25:12;10.25;;;3.42;;
51724;SDS011;37801;53.224;6.552;2023-04-24T11:27:11;7.05;;;3.00;;
51724;SDS011;37801;53.224;6.552;2023-04-24T11:32:33;8.02;;;2.67;;
51724;SDS011;37801;53.224;6.552;2023-04-24T11:37:43;14.30;;;3.63;;
51724;SDS011;37801;53.224;6.552;2023-04-24T11:40:14;12.00;;;3.50;;
51724;SDS011;37801;53.224;6.552;2023-04-24T11:42:43;12.63;;;3.03;;
51724;SDS011;37801;53.224;6.552;2023-04-24T11:45:10;13.65;;;3.15;;
51724;SDS011;37801;53.224;6.552;2023-04-24T11:47:38;12.35;;;3.38;;
51724;SDS011;37801;53.224;6.552;2023-04-24T11:50:05;9.32;;;3.00;;
51724;SDS011;37801;53.224;6.552;2023-04-24T11:52:37;9.52;;;3.00;;
51724;SDS011;37801;53.224;6.552;2023-04-24T11:55:12;11.18;;;3.05;;
51724;SDS011;37801;53.224;6.552;2023-04-24T11:57:58;9.68;;;2.83;;
51724;SDS011;37801;53.224;6.552;2023-04-24T12:03:04;10.75;;;2.90;;
51724;SDS011;37801;53.224;6.552;2023-04-24T12:05:37;13.48;;;2.78;;
51724;SDS011;37801;53.224;6.552;2023-04-24T12:08:03;11.25;;;2.67;;
51724;SDS011;37801;53.224;6.552;2023-04-24T12:10:30;8.85;;;3.17;;
51724;SDS011;37801;53.224;6.552;2023-04-24T12:12:57;9.05;;;2.72;;
51724;SDS011;37801;53.224;6.552;2023-04-24T12:15:24;5.95;;;2.53;;
51724;SDS011;37801;53.224;6.552;2023-04-24T12:17:51;7.95;;;2.63;;
51724;SDS011;37801;53.224;6.552;2023-04-24T12:20:23;5.72;;;2.17;;
51724;SDS011;37801;53.224;6.552;2023-04-24T12:22:51;5.93;;;2.30;;
51724;SDS011;37801;53.224;6.552;2023-04-24T12:25:22;4.90;;;2.25;;
51724;SDS011;37801;53.224;6.552;2023-04-24T12:27:53;3.67;;;2.05;;
51724;SDS011;37801;53.224;6.552;2023-04-24T12:30:26;8.95;;;2.58;;
51724;SDS011;37801;53.224;6.552;2023-04-24T12:32:56;4.32;;;2.22;;
51724;SDS011;37801;53.224;6.552;2023-04-24T12:35:24;5.25;;;2.30;;
51724;SDS011;37801;53.224;6.552;2023-04-24T12:37:54;8.60;;;2.13;;
51724;SDS011;37801;53.224;6.552;2023-04-24T12:40:20;6.18;;;1.80;;
51724;SDS011;37801;53.224;6.552;2023-04-24T12:42:48;2.85;;;1.45;;
51724;SDS011;37801;53.224;6.552;2023-04-24T12:45:15;4.88;;;1.73;;
51724;SDS011;37801;53.224;6.552;2023-04-24T12:47:42;1.77;;;1.23;;
51724;SDS011;37801;53.224;6.552;2023-04-24T12:50:10;6.20;;;1.67;;
51724;SDS011;37801;53.224;6.552;2023-04-24T12:52:37;5.15;;;1.60;;
51724;SDS011;37801;53.224;6.552;2023-04-24T12:55:04;8.63;;;1.80;;
51724;SDS011;37801;53.224;6.552;2023-04-24T12:57:33;5.78;;;1.75;;
51724;SDS011;37801;53.224;6.552;2023-04-24T13:00:00;7.90;;;1.80;;
51724;SDS011;37801;53.224;6.552;2023-04-24T13:02:27;5.63;;;1.55;;
51724;SDS011;37801;53.224;6.552;2023-04-24T13:04:54;4.97;;;1.38;;
51724;SDS011;37801;53.224;6.552;2023-04-24T13:07:20;6.50;;;1.65;;
51724;SDS011;37801;53.224;6.552;2023-04-24T13:09:47;7.30;;;1.88;;
51724;SDS011;37801;53.224;6.552;2023-04-24T13:12:14;6.00;;;1.58;;
51724;SDS011;37801;53.224;6.552;2023-04-24T13:14:40;5.70;;;1.40;;
51724;SDS011;37801;53.224;6.552;2023-04-24T13:17:06;4.93;;;1.23;;
51724;SDS011;37801;53.224;6.552;2023-04-24T13:19:37;6.72;;;1.90;;
51724;SDS011;37801;53.224;6.552;2023-04-24T13:22:03;8.05;;;1.98;;
51724;SDS011;37801;53.224;6.552;2023-04-24T13:24:29;7.05;;;1.85;;
51724;SDS011;37801;53.224;6.552;2023-04-24T13:26:56;8.30;;;1.73;;
51724;SDS011;37801;53.224;6.552;2023-04-24T13:29:22;4.38;;;1.52;;
51724;SDS011;37801;53.224;6.552;2023-04-24T13:31:49;5.25;;;1.42;;
51724;SDS011;37801;53.224;6.552;2023-04-24T13:34:16;6.10;;;1.45;;
51724;SDS011;37801;53.224;6.552;2023-04-24T13:36:42;7.47;;;1.58;;
51724;SDS011;37801;53.224;6.552;2023-04-24T13:39:09;3.28;;;1.27;;
51724;SDS011;37801;53.224;6.552;2023-04-24T13:41:35;8.63;;;1.35;;
51724;SDS011;37801;53.224;6.552;2023-04-24T13:44:01;5.72;;;1.42;;
51724;SDS011;37801;53.224;6.552;2023-04-24T13:46:27;3.35;;;0.90;;
51724;SDS011;37801;53.224;6.552;2023-04-24T13:48:53;5.80;;;0.95;;
51724;SDS011;37801;53.224;6.552;2023-04-24T13:51:19;3.50;;;1.00;;
51724;SDS011;37801;53.224;6.552;2023-04-24T13:53:45;4.35;;;1.10;;
51724;SDS011;37801;53.224;6.552;2023-04-24T13:56:11;3.55;;;0.90;;
51724;SDS011;37801;53.224;6.552;2023-04-24T13:58:37;2.33;;;1.15;;
51724;SDS011;37801;53.224;6.552;2023-04-24T14:01:03;5.43;;;0.90;;
51724;SDS011;37801;53.224;6.552;2023-04-24T14:03:29;5.80;;;1.33;;
51724;SDS011;37801;53.224;6.552;2023-04-24T14:05:55;4.40;;;1.20;;
51724;SDS011;37801;53.224;6.552;2023-04-24T14:08:21;6.40;;;1.45;;
51724;SDS011;37801;53.224;6.552;2023-04-24T14:10:47;7.35;;;1.67;;
51724;SDS011;37801;53.224;6.552;2023-04-24T14:13:13;4.50;;;1.80;;
51724;SDS011;37801;53.224;6.552;2023-04-24T14:15:39;8.52;;;2.50;;
51724;SDS011;37801;53.224;6.552;2023-04-24T14:18:05;8.05;;;2.20;;
51724;SDS011;37801;53.224;6.552;2023-04-24T14:20:31;6.20;;;2.22;;
51724;SDS011;37801;53.224;6.552;2023-04-24T14:22:57;10.20;;;2.58;;
51724;SDS011;37801;53.224;6.552;2023-04-24T14:25:25;12.98;;;2.63;;
51724;SDS011;37801;53.224;6.552;2023-04-24T14:27:51;9.50;;;2.53;;
51724;SDS011;37801;53.224;6.552;2023-04-24T14:30:17;8.68;;;2.28;;
51724;SDS011;37801;53.224;6.552;2023-04-24T14:32:43;9.55;;;2.25;;
51724;SDS011;37801;53.224;6.552;2023-04-24T14:35:09;11.40;;;2.90;;
51724;SDS011;37801;53.224;6.552;2023-04-24T14:37:36;11.55;;;3.10;;
51724;SDS011;37801;53.224;6.552;2023-04-24T14:40:02;12.18;;;3.10;;
51724;SDS011;37801;53.224;6.552;2023-04-24T14:42:30;9.30;;;2.78;;
51724;SDS011;37801;53.224;6.552;2023-04-24T14:44:55;8.10;;;2.53;;
51724;SDS011;37801;53.224;6.552;2023-04-24T14:47:21;9.25;;;2.83;;
51724;SDS011;37801;53.224;6.552;2023-04-24T14:49:47;9.45;;;2.60;;
51724;SDS011;37801;53.224;6.552;2023-04-24T14:52:13;11.10;;;2.72;;
51724;SDS011;37801;53.224;6.552;2023-04-24T14:54:39;9.73;;;2.92;;
51724;SDS011;37801;53.224;6.552;2023-04-24T14:57:05;9.05;;;2.53;;
51724;SDS011;37801;53.224;6.552;2023-04-24T14:59:31;8.07;;;2.72;;
51724;SDS011;37801;53.224;6.552;2023-04-24T15:01:57;7.63;;;2.47;;
51724;SDS011;37801;53.224;6.552;2023-04-24T15:04:26;9.15;;;2.50;;